Time;durP1;ratioP1;P1;durP2;ratioP2;P2;SDS_P1;SDS_P2;PMS_P1;PMS_P2;Temp;Humidity;BMP_temperature;BMP_pressure;BME280_temperature;BME280_humidity;BME280_pressure;Samples;Min_cycle;Max_cycle;Signal;HPM_P1;HPM_P2
2023/05/12 00:00:33;;;;;;;15.13;13.70;;;14.20;99.90;;;13.73;89.91;101019.66;5014716;28;20326;-77
2023/05/12 00:03:05;;;;;;;14.17;12.97;;;14.10;99.90;;;13.70;89.88;101021.66;5014852;28;20212;-77
2023/05/12 00:05:37;;;;;;;16.27;14.73;;;14.10;99.90;;;13.69;90.51;101024.53;5014961;28;20656;-77
2023/05/12 00:08:09;;;;;;;18.43;16.77;;;14.10;99.90;;;13.65;91.08;101024.06;5015032;28;20270;-77
2023/05/12 00:10:41;;;;;;;17.47;15.97;;;14.00;99.90;;;13.62;91.45;101016.31;5015135;28;20325;-77
2023/05/12 00:13:14;;;;;;;16.93;15.23;;;14.00;99.90;;;13.58;91.12;101016.84;5014726;28;20535;-77
2023/05/12 00:15:46;;;;;;;17.67;16.03;;;14.00;99.90;;;13.58;91.03;101023.06;5014478;28;20242;-77
2023/05/12 00:18:18;;;;;;;18.57;16.90;;;14.00;99.90;;;13.57;90.80;101025.91;5014920;28;20567;-78
2023/05/12 00:20:50;;;;;;;18.77;17.07;;;14.00;99.90;;;13.55;90.65;101023.41;5014519;28;20793;-78
2023/05/12 00:23:22;;;;;;;18.27;16.67;;;14.00;99.90;;;13.54;90.89;101021.72;5014502;28;20695;-76
2023/05/12 00:25:53;;;;;;;17.27;15.67;;;13.90;99.90;;;13.58;90.36;101027.59;5014457;28;20192;-77
2023/05/12 00:28:26;;;;;;;18.03;16.43;;;14.00;99.90;;;13.55;90.26;101028.78;5014639;28;20199;-76
2023/05/12 00:31:00;;;;;;;19.73;17.83;;;13.90;99.90;;;13.52;90.13;101029.13;5014401;28;20227;-76
2023/05/12 00:33:34;;;;;;;19.03;17.20;;;13.90;99.90;;;13.49;90.67;101024.06;5014684;28;20653;-77
2023/05/12 00:36:07;;;;;;;19.20;17.33;;;13.90;99.90;;;13.47;90.75;101020.72;5014385;28;20199;-77
2023/05/12 00:38:40;;;;;;;20.40;18.60;;;13.90;99.90;;;13.47;90.42;101026.13;5014553;28;20660;-77
2023/05/12 00:41:11;;;;;;;21.20;19.20;;;13.90;99.90;;;13.43;90.26;101024.78;5013960;28;20228;-76
2023/05/12 00:43:44;;;;;;;20.63;18.63;;;13.80;99.90;;;13.43;90.98;101021.25;5013703;28;20216;-77
2023/05/12 00:46:17;;;;;;;22.20;20.13;;;13.80;99.90;;;13.44;90.81;101023.78;5013821;28;20214;-78
2023/05/12 00:48:49;;;;;;;22.53;20.43;;;13.80;99.90;;;13.42;91.11;101033.88;5014019;28;20199;-78
2023/05/12 00:51:21;;;;;;;23.57;21.27;;;13.80;99.90;;;13.40;90.95;101019.75;5013627;28;20228;-78
2023/05/12 00:53:55;;;;;;;23.83;21.63;;;13.80;99.90;;;13.41;91.57;101026.81;5013549;28;20598;-78
2023/05/12 00:56:27;;;;;;;22.90;20.70;;;13.80;99.90;;;13.43;91.81;101029.31;5013860;28;20192;-78
2023/05/12 00:59:00;;;;;;;22.00;19.83;;;13.80;99.90;;;13.44;91.58;101026.47;5014135;28;20196;-77
2023/05/12 01:01:32;;;;;;;22.57;20.57;;;13.90;99.90;;;13.42;91.39;101020.44;5013247;28;20731;-77
2023/05/12 01:04:04;;;;;;;23.70;21.47;;;13.90;99.90;;;13.42;91.74;101027.66;5013627;28;20270;-77
2023/05/12 01:06:48;;;;;;;23.53;21.40;;;13.80;99.90;;;13.41;91.38;101024.13;5013262;28;20603;-78
2023/05/12 01:09:21;;;;;;;21.03;19.13;;;13.80;99.90;;;13.39;91.65;101023.44;5013584;28;20267;-76
2023/05/12 01:11:52;;;;;;;24.20;21.70;;;13.80;99.90;;;13.40;92.29;101032.34;5015928;28;20191;-77
2023/05/12 01:14:26;;;;;;;23.30;21.10;;;13.80;99.90;;;13.37;91.38;101036.22;5016779;28;20192;-77
2023/05/12 01:17:02;;;;;;;23.47;21.30;;;13.80;99.90;;;13.35;91.88;101032.88;5017301;28;20199;-77
2023/05/12 01:19:45;;;;;;;24.97;22.53;;;13.80;99.90;;;13.26;92.48;101043.78;5017053;28;20239;-77
2023/05/12 01:22:18;;;;;;;24.47;22.17;;;13.70;99.90;;;13.16;93.82;101052.88;5017095;28;20196;-77
2023/05/12 01:24:54;;;;;;;23.73;21.43;;;13.60;99.90;;;13.07;94.61;101055.72;5016884;28;20222;-76
2023/05/12 01:27:29;;;;;;;26.63;23.93;;;13.50;99.90;;;12.97;95.34;101055.06;5016561;28;20191;-76
2023/05/12 01:30:04;;;;;;;28.57;25.77;;;13.40;99.90;;;12.93;95.75;101068.00;5016611;28;20231;-77
2023/05/12 01:32:38;;;;;;;28.30;25.50;;;13.40;99.90;;;12.97;95.53;101068.50;5016353;28;20309;-78
2023/05/12 01:35:11;;;;;;;25.70;22.77;;;13.40;99.90;;;13.02;95.02;101074.19;5016648;28;20191;-77
2023/05/12 01:37:43;;;;;;;25.33;22.87;;;13.50;99.90;;;13.05;94.20;101069.31;5016787;28;20192;-77
2023/05/12 01:40:16;;;;;;;25.23;22.83;;;13.50;99.90;;;13.07;93.54;101071.84;5016660;28;20223;-77
2023/05/12 01:42:50;;;;;;;25.90;23.60;;;13.50;99.90;;;13.09;93.76;101072.53;5016288;28;20196;-77
2023/05/12 01:45:22;;;;;;;26.83;24.23;;;13.60;99.90;;;13.10;92.91;101071.53;5016447;28;20214;-77
2023/05/12 01:47:54;;;;;;;26.43;23.83;;;13.60;99.90;;;13.10;92.89;101072.38;5016329;28;20200;-77
2023/05/12 01:50:25;;;;;;;26.97;24.53;;;13.60;99.90;;;13.11;92.95;101078.63;5016471;28;20227;-77
2023/05/12 01:52:57;;;;;;;26.83;24.23;;;13.60;99.90;;;13.11;92.31;101071.38;5016232;28;20656;-77
2023/05/12 01:55:29;;;;;;;25.87;23.17;;;13.60;99.90;;;13.12;92.34;101077.59;5016491;28;20199;-77
2023/05/12 01:58:02;;;;;;;27.97;25.17;;;13.60;99.90;;;13.12;92.92;101083.81;5016375;28;20211;-77
2023/05/12 02:00:34;;;;;;;28.70;25.90;;;13.50;99.90;;;13.09;93.19;101081.44;5016521;28;20254;-77
2023/05/12 02:03:06;;;;;;;26.50;24.00;;;13.50;99.90;;;13.10;93.15;101071.53;5016147;28;20196;-77
2023/05/12 02:05:38;;;;;;;26.43;23.73;;;13.60;99.90;;;13.11;93.26;101078.63;5016323;28;20207;-77
2023/05/12 02:08:10;;;;;;;27.80;24.70;;;13.50;99.90;;;13.10;92.69;101087.69;5016453;28;20211;-77
2023/05/12 02:10:42;;;;;;;26.77;23.90;;;13.60;99.90;;;13.05;92.62;101080.06;5016222;28;20227;-76
2023/05/12 02:13:15;;;;;;;26.77;24.10;;;13.50;99.90;;;13.02;93.56;101079.56;5016177;28;20211;-77
2023/05/12 02:15:47;;;;;;;25.97;23.43;;;13.40;99.90;;;13.02;93.04;101083.09;5015871;28;20606;-77
2023/05/12 02:18:18;;;;;;;27.07;24.30;;;13.40;99.90;;;12.99;93.22;101086.13;5016059;28;20191;-78
2023/05/12 02:20:50;;;;;;;28.23;25.53;;;13.40;99.90;;;12.96;93.91;101085.63;5015963;28;20656;-77
2023/05/12 02:23:22;;;;;;;27.53;24.83;;;13.40;99.90;;;12.96;93.67;101082.94;5015908;28;20199;-77
2023/05/12 02:25:54;;;;;;;26.33;23.83;;;13.40;99.90;;;13.00;93.53;101076.22;5016085;28;20199;-78
2023/05/12 02:28:27;;;;;;;27.07;24.33;;;13.40;99.90;;;12.99;93.14;101074.53;5016072;28;20214;-77
2023/05/12 02:30:59;;;;;;;27.03;24.57;;;13.40;99.90;;;12.99;93.40;101072.69;5015810;28;20247;-77
2023/05/12 02:33:31;;;;;;;27.93;25.03;;;13.50;99.90;;;12.98;92.89;101075.56;5015238;28;20216;-78
2023/05/12 02:36:03;;;;;;;27.40;24.80;;;13.40;99.90;;;12.97;94.10;101076.56;5015497;28;20641;-78
2023/05/12 02:38:35;;;;;;;25.83;23.17;;;13.40;99.90;;;12.99;93.31;101071.84;5016050;28;20196;-77
2023/05/12 02:41:06;;;;;;;25.20;22.73;;;13.40;99.90;;;12.98;93.08;101073.69;5016054;28;20708;-76
2023/05/12 02:43:39;;;;;;;25.83;23.43;;;13.40;99.90;;;12.99;93.12;101064.63;5016150;28;20188;-78
2023/05/12 02:46:11;;;;;;;25.77;23.37;;;13.40;99.90;;;12.99;93.18;101066.47;5016302;28;20274;-76
2023/05/12 02:48:43;;;;;;;25.70;23.10;;;13.40;99.90;;;12.97;92.70;101069.34;5016334;28;20560;-78
2023/05/12 02:51:15;;;;;;;26.97;24.27;;;13.40;99.90;;;12.99;92.98;101063.78;5015886;28;20227;-76
2023/05/12 02:53:47;;;;;;;27.23;24.63;;;13.40;99.90;;;12.95;92.45;101059.75;5015579;28;20192;-77
2023/05/12 02:56:19;;;;;;;26.67;24.13;;;13.40;99.90;;;12.91;93.84;101074.53;5014957;28;20637;-77
2023/05/12 02:58:52;;;;;;;26.70;23.97;;;13.40;99.90;;;12.93;93.96;101067.16;5015431;28;20591;-78
2023/05/12 03:01:24;;;;;;;27.30;24.70;;;13.40;99.90;;;12.90;94.11;101071.00;5015102;28;20223;-78
2023/05/12 03:03:56;;;;;;;25.40;22.93;;;13.40;99.90;;;12.91;93.44;101078.03;5014793;28;20695;-76
2023/05/12 03:06:29;;;;;;;28.17;25.47;;;13.30;99.90;;;12.90;94.01;101065.63;5015077;28;20199;-76
2023/05/12 03:09:01;;;;;;;26.33;23.83;;;13.40;99.90;;;12.91;94.21;101071.84;5015403;28;20226;-78
2023/05/12 03:11:33;;;;;;;27.07;24.57;;;13.40;99.90;;;12.89;93.39;101060.41;5015177;28;20227;-77
2023/05/12 03:14:06;;;;;;;26.70;24.17;;;13.40;99.90;;;12.89;93.63;101068.47;5015012;28;20195;-77
2023/05/12 03:16:37;;;;;;;28.07;25.17;;;13.30;99.90;;;12.91;93.36;101066.47;5015171;28;20258;-76
2023/05/12 03:19:09;;;;;;;27.83;25.13;;;13.30;99.90;;;12.87;93.74;101075.88;5015084;28;20218;-77
2023/05/12 03:21:41;;;;;;;28.97;26.37;;;13.30;99.90;;;12.86;93.92;101077.72;5014901;28;20192;-77
2023/05/12 03:24:13;;;;;;;30.23;27.43;;;13.30;99.90;;;12.77;95.08;101086.78;5014604;28;20219;-77
2023/05/12 03:26:45;;;;;;;29.43;26.60;;;13.30;99.90;;;12.80;94.83;101082.94;5014554;28;20222;-77
2023/05/12 03:29:19;;;;;;;28.10;25.40;;;13.30;99.90;;;12.77;94.67;101075.19;5014378;28;20595;-76
2023/05/12 03:31:50;;;;;;;29.57;26.67;;;13.20;99.90;;;12.76;94.24;101079.72;5014401;28;20211;-77
2023/05/12 03:34:22;;;;;;;30.90;28.00;;;13.20;99.90;;;12.76;95.24;101081.56;5013895;28;20282;-77
2023/05/12 03:36:54;;;;;;;27.80;25.13;;;13.20;99.90;;;12.77;95.04;101075.19;5014838;28;20198;-77
2023/05/12 03:39:26;;;;;;;28.67;25.87;;;13.20;99.90;;;12.77;94.36;101075.19;5014184;28;20192;-77
2023/05/12 03:41:58;;;;;;;30.53;27.63;;;13.20;99.90;;;12.79;94.50;101073.19;5014404;28;20270;-77
2023/05/12 03:44:31;;;;;;;29.33;26.53;;;13.20;99.90;;;12.79;94.05;101078.56;5014351;28;20216;-77
2023/05/12 03:47:03;;;;;;;31.00;27.90;;;13.30;99.90;;;12.80;94.19;101085.63;5014259;28;20188;-78
2023/05/12 03:49:35;;;;;;;32.23;28.40;;;13.30;99.90;;;12.75;94.46;101096.84;5014439;28;20231;-76
2023/05/12 03:52:06;;;;;;;27.37;24.77;;;13.20;99.90;;;12.73;94.49;101101.56;5013862;28;20254;-77
2023/05/12 03:54:38;;;;;;;29.60;26.80;;;13.20;99.90;;;12.70;94.41;101102.72;5014257;28;20188;-77
2023/05/12 03:57:11;;;;;;;29.93;26.90;;;13.20;99.90;;;12.73;94.48;101095.34;5013819;28;20652;-77
2023/05/12 03:59:45;;;;;;;29.40;26.30;;;13.20;99.90;;;12.72;94.42;101102.56;5014136;28;20231;-77
2023/05/12 04:02:17;;;;;;;28.03;25.33;;;13.20;99.90;;;12.75;93.58;101104.06;5014141;28;20192;-77
2023/05/12 04:04:49;;;;;;;26.50;24.00;;;13.20;99.90;;;12.74;93.24;101091.66;5013768;28;20230;-78
2023/05/12 04:07:20;;;;;;;27.87;25.27;;;13.20;99.90;;;12.74;93.72;101099.72;5013909;28;20250;-77
2023/05/12 04:09:52;;;;;;;28.53;25.63;;;13.20;99.90;;;12.71;93.73;101096.34;5014560;28;20231;-77
2023/05/12 04:12:24;;;;;;;27.97;25.37;;;13.20;99.90;;;12.69;93.82;101109.09;5014031;28;20592;-78
2023/05/12 04:14:58;;;;;;;26.97;24.47;;;13.20;99.90;;;12.68;94.22;101104.72;5014175;28;20187;-77
2023/05/12 04:17:30;;;;;;;26.97;24.10;;;13.10;99.90;;;12.70;94.04;101108.06;5013961;28;20202;-78
2023/05/12 04:20:03;;;;;;;27.53;24.63;;;13.10;99.90;;;12.69;94.08;101106.41;5014096;28;20281;-77
2023/05/12 04:22:34;;;;;;;28.07;25.37;;;13.20;99.90;;;12.69;94.56;101122.53;5013928;28;20206;-78
2023/05/12 04:25:06;;;;;;;25.43;23.03;;;13.10;99.90;;;12.72;94.10;101118.69;5013969;28;20207;-77
2023/05/12 04:27:38;;;;;;;25.20;22.70;;;13.20;99.90;;;12.72;94.01;101121.38;5013747;28;20194;-77
2023/05/12 04:30:12;;;;;;;24.70;22.30;;;13.20;99.90;;;12.71;94.21;101125.03;5013733;28;20229;-76
2023/05/12 04:32:43;;;;;;;25.70;23.17;;;13.20;99.90;;;12.71;93.58;101130.41;5013813;28;20222;-77
2023/05/12 04:35:16;;;;;;;23.50;21.33;;;13.10;99.90;;;12.70;93.43;101129.56;5013552;28;20660;-78
2023/05/12 04:37:49;;;;;;;24.27;21.87;;;13.20;99.90;;;12.73;93.42;101132.94;5013651;28;20210;-77
2023/05/12 04:40:21;;;;;;;25.50;23.13;;;13.20;99.90;;;12.69;92.91;101127.91;5013530;28;20716;-77
2023/05/12 04:42:52;;;;;;;22.50;20.50;;;13.20;99.90;;;12.72;93.65;101126.72;5013358;28;20652;-77
2023/05/12 04:45:25;;;;;;;23.63;21.43;;;13.20;99.90;;;12.74;93.08;101129.28;5014084;28;20211;-77
2023/05/12 04:47:57;;;;;;;22.83;20.73;;;13.20;99.90;;;12.73;92.99;101127.56;5017253;28;20645;-77
2023/05/12 04:50:29;;;;;;;22.30;20.00;;;13.20;99.90;;;12.74;93.36;101140.84;5017518;28;20227;-77
2023/05/12 04:53:01;;;;;;;20.83;18.83;;;13.20;99.90;;;12.74;93.67;101132.78;5017057;28;20706;-77
2023/05/12 04:55:33;;;;;;;21.10;19.13;;;13.20;99.90;;;12.75;92.86;101145.22;5017301;28;20222;-77
2023/05/12 04:58:05;;;;;;;20.47;18.43;;;13.20;99.90;;;12.75;92.91;101147.91;5017152;28;20192;-77
2023/05/12 05:00:38;;;;;;;21.47;19.47;;;13.30;99.90;;;12.73;92.44;101151.75;5017186;28;20227;-76
2023/05/12 05:03:10;;;;;;;19.80;17.87;;;13.20;99.90;;;12.74;91.95;101150.75;5017508;28;20192;-77
2023/05/12 05:05:42;;;;;;;18.63;16.87;;;13.20;99.90;;;12.75;91.25;101147.91;5017023;28;20311;-76
2023/05/12 05:08:14;;;;;;;16.77;15.27;;;13.20;99.90;;;12.74;90.36;101148.06;5016537;28;20203;-76
2023/05/12 05:10:46;;;;;;;17.87;15.67;;;13.20;99.90;;;12.76;90.81;101148.75;5016701;28;20226;-77
2023/05/12 05:13:18;;;;;;;16.90;15.27;;;13.30;99.90;;;12.78;90.80;101158.31;5016445;28;20645;-77
2023/05/12 05:15:55;;;;;;;16.23;14.57;;;13.30;99.90;;;12.78;90.29;101157.47;5016635;28;20270;-76
2023/05/12 05:18:27;;;;;;;15.57;14.17;;;13.30;99.90;;;12.76;89.56;101154.13;5016656;28;20265;-76
2023/05/12 05:21:00;;;;;;;15.10;13.70;;;13.30;99.90;;;12.77;89.66;101156.66;5016257;28;20630;-76
2023/05/12 05:23:32;;;;;;;15.40;13.70;;;13.30;99.90;;;12.80;90.51;101158.16;5016564;28;20278;-76
2023/05/12 05:26:04;;;;;;;15.50;14.10;;;13.30;99.90;;;12.80;89.80;101161.69;5016444;28;20227;-77
2023/05/12 05:28:36;;;;;;;15.80;14.30;;;13.30;99.90;;;12.84;89.84;101165.75;5016524;28;20196;-77
2023/05/12 05:31:13;;;;;;;16.63;15.07;;;13.30;99.90;;;12.86;90.34;101169.09;5016960;28;20572;-77
2023/05/12 05:33:45;;;;;;;19.20;15.63;;;13.30;99.90;;;12.87;90.62;101178.00;5016347;28;20231;-78
2023/05/12 05:36:16;;;;;;;17.33;15.73;;;13.30;99.90;;;12.90;91.54;101177.66;5016363;28;20199;-77
2023/05/12 05:38:48;;;;;;;16.17;14.47;;;13.40;99.90;;;12.88;90.97;101179.66;5016287;28;20558;-77
2023/05/12 05:41:21;;;;;;;15.23;13.77;;;13.20;99.90;;;12.89;90.51;101178.66;5016166;28;20227;-77
2023/05/12 05:43:53;;;;;;;13.60;12.20;;;13.40;99.90;;;12.88;89.66;101185.03;5016382;28;20206;-77
2023/05/12 05:46:26;;;;;;;13.40;11.70;;;13.40;99.90;;;12.92;89.04;101186.38;5016124;28;20558;-77
2023/05/12 05:48:58;;;;;;;13.17;11.87;;;13.40;99.90;;;12.93;89.06;101180.00;5016090;28;20196;-77
2023/05/12 05:51:30;;;;;;;12.83;11.73;;;13.40;99.90;;;12.96;88.59;101187.75;5015630;28;20231;-77
2023/05/12 05:54:02;;;;;;;12.63;11.53;;;13.50;99.90;;;12.98;88.33;101191.13;5016054;28;20191;-77
2023/05/12 05:56:34;;;;;;;11.77;10.57;;;13.50;99.90;;;12.94;87.34;101197.84;5015575;28;20191;-77
2023/05/12 05:59:06;;;;;;;12.00;10.83;;;13.40;99.90;;;12.98;87.64;101191.13;5015896;28;20210;-77
2023/05/12 06:01:39;;;;;;;10.60;9.57;;;13.50;99.90;;;12.95;86.62;101186.91;5015711;28;20227;-77
2023/05/12 06:04:11;;;;;;;10.43;9.53;;;13.50;99.90;;;12.96;86.11;101199.34;5015513;28;20191;-77
2023/05/12 06:06:44;;;;;;;10.27;9.37;;;13.50;99.90;;;12.94;85.39;101201.38;5015641;28;20306;-77
2023/05/12 06:09:15;;;;;;;11.53;9.10;;;13.50;99.90;;;12.96;85.94;101198.50;5015616;28;20207;-76
2023/05/12 06:11:47;;;;;;;10.77;9.77;;;13.50;99.90;;;12.99;86.34;101203.53;5015622;28;20206;-77
2023/05/12 06:14:19;;;;;;;10.73;9.73;;;13.50;99.90;;;13.01;85.90;101201.53;5015264;28;20557;-77
2023/05/12 06:16:52;;;;;;;12.27;9.90;;;13.60;99.90;;;13.02;86.72;101203.22;5015731;28;20195;-77
2023/05/12 06:19:24;;;;;;;10.17;9.37;;;13.50;99.90;;;13.05;86.06;101198.34;5015408;28;20198;-76
2023/05/12 06:21:56;;;;;;;11.23;9.30;;;13.50;99.90;;;13.04;85.76;101206.59;5015703;28;20196;-77
2023/05/12 06:24:28;;;;;;;9.47;8.60;;;13.60;99.90;;;13.04;84.95;101218.19;5015496;28;20191;-77
2023/05/12 06:27:00;;;;;;;9.57;8.67;;;13.60;99.90;;;13.08;85.85;101214.13;5015257;28;20212;-77
2023/05/12 06:29:32;;;;;;;9.07;8.27;;;13.60;99.90;;;13.10;85.76;101216.72;5015498;28;20195;-76
2023/05/12 06:32:05;;;;;;;9.37;8.47;;;13.60;99.90;;;13.09;84.42;101221.25;5015266;28;20216;-78
2023/05/12 06:34:37;;;;;;;9.33;8.40;;;13.60;99.90;;;13.07;83.84;101214.31;5015209;28;20192;-78
2023/05/12 06:37:09;;;;;;;9.17;8.27;;;13.60;99.90;;;13.14;85.97;101218.06;5015133;28;20210;-77
2023/05/12 06:39:41;;;;;;;9.60;7.90;;;13.60;99.90;;;13.16;85.19;101229.47;5015032;28;20227;-77
2023/05/12 06:42:13;;;;;;;8.67;7.97;;;13.70;99.90;;;13.16;84.31;101221.41;5014792;28;20203;-77
2023/05/12 06:44:45;;;;;;;8.47;7.70;;;13.70;99.90;;;13.21;84.91;101224.47;5014632;28;20199;-77
2023/05/12 06:47:19;;;;;;;9.10;7.70;;;13.70;99.90;;;13.25;85.07;101233.03;5014543;28;20211;-77
2023/05/12 06:49:51;;;;;;;10.10;8.30;;;13.80;99.90;;;13.26;84.46;101238.25;5014544;28;20238;-77
2023/05/12 06:52:23;;;;;;;9.30;7.43;;;13.80;99.90;;;13.29;83.80;101237.91;5014830;28;20246;-77
2023/05/12 06:54:55;;;;;;;8.27;7.47;;;13.80;99.90;;;13.32;83.58;101231.38;5014765;28;20202;-77
2023/05/12 06:57:27;;;;;;;7.87;7.07;;;13.90;99.90;;;13.34;83.05;101235.56;5014779;28;20184;-78
2023/05/12 06:59:59;;;;;;;7.83;7.03;;;13.90;99.90;;;13.38;83.47;101234.25;5014639;28;20235;-77
2023/05/12 07:02:32;;;;;;;13.50;7.23;;;13.90;99.90;;;13.40;83.21;101224.13;5014410;28;20198;-77
2023/05/12 07:05:04;;;;;;;8.77;7.13;;;13.90;99.90;;;13.40;81.88;101232.22;5014634;28;20366;-77
2023/05/12 07:07:36;;;;;;;8.90;7.60;;;14.00;99.90;;;13.45;81.57;101231.72;5014428;28;20220;-77
2023/05/12 07:10:10;;;;;;;8.80;7.27;;;14.00;99.90;;;13.48;81.62;101231.38;5013629;28;20600;-77
2023/05/12 07:12:42;;;;;;;7.83;7.10;;;14.00;99.90;;;13.52;80.78;101238.13;5014527;28;20195;-77
2023/05/12 07:15:14;;;;;;;9.03;7.27;;;14.00;99.90;;;13.57;81.52;101241.97;5014528;28;20203;-77
2023/05/12 07:17:48;;;;;;;8.27;7.47;;;14.10;99.90;;;13.61;81.20;101232.56;5014099;28;20667;-77
2023/05/12 07:20:19;;;;;;;8.73;7.87;;;14.20;99.90;;;13.64;79.63;101243.00;5014305;28;20227;-76
2023/05/12 07:22:53;;;;;;;8.33;7.50;;;14.20;99.90;;;13.68;79.99;101244.34;5014289;28;20195;-77
2023/05/12 07:25:25;;;;;;;9.60;7.70;;;14.20;99.90;;;13.75;81.84;101232.91;5014305;28;20644;-77
2023/05/12 07:27:57;;;;;;;8.30;7.40;;;14.30;99.90;;;13.79;79.37;101232.41;5014205;28;20266;-77
2023/05/12 07:30:29;;;;;;;8.07;7.37;;;14.30;99.90;;;13.84;78.08;101238.09;5014142;28;20255;-77
2023/05/12 07:33:02;;;;;;;8.57;7.53;;;14.40;99.90;;;13.89;76.78;101241.13;5013755;28;20223;-77
2023/05/12 07:35:34;;;;;;;8.50;7.60;;;14.40;99.90;;;13.92;76.76;101232.72;5014917;28;20222;-77
2023/05/12 07:38:08;;;;;;;10.73;7.80;;;14.50;99.90;;;13.97;78.69;101235.72;5013887;28;20207;-76
2023/05/12 07:40:39;;;;;;;8.90;7.67;;;14.50;99.90;;;14.04;77.46;101238.59;5013552;28;20727;-77
2023/05/12 07:43:11;;;;;;;9.70;8.20;;;14.60;99.90;;;14.10;78.42;101244.16;5013891;28;20195;-77
2023/05/12 07:45:43;;;;;;;9.60;7.87;;;14.60;99.90;;;14.14;75.57;101245.47;5014007;28;20242;-77
2023/05/12 07:48:16;;;;;;;9.20;8.23;;;14.70;99.90;;;14.20;77.26;101238.56;5013728;28;20219;-77
2023/05/12 07:50:48;;;;;;;8.97;8.07;;;14.70;99.90;;;14.27;77.13;101238.72;5013739;28;20227;-77
2023/05/12 07:53:20;;;;;;;8.40;7.60;;;14.80;99.90;;;14.32;76.49;101242.56;5013472;28;20202;-77
2023/05/12 07:55:52;;;;;;;8.43;7.63;;;14.90;99.90;;;14.37;74.61;101244.78;5013415;28;20195;-77
2023/05/12 07:58:24;;;;;;;8.50;7.70;;;14.90;99.90;;;14.41;75.50;101252.34;5013545;28;20188;-77
2023/05/12 08:00:58;;;;;;;8.90;7.83;;;15.00;99.90;;;14.50;74.99;101250.47;5013866;28;20223;-77
2023/05/12 08:03:31;;;;;;;9.73;7.77;;;15.00;99.90;;;14.57;75.78;101249.59;5013421;28;20197;-77
2023/05/12 08:06:04;;;;;;;9.30;8.40;;;15.10;99.90;;;14.63;75.78;101245.34;5013753;28;20285;-77
2023/05/12 08:08:36;;;;;;;8.20;7.50;;;15.20;99.90;;;14.68;75.86;101243.84;5013477;28;20553;-75
2023/05/12 08:11:08;;;;;;;9.17;8.10;;;15.20;99.90;;;14.77;74.57;101246.47;5013576;28;20234;-75
2023/05/12 08:13:41;;;;;;;8.70;7.80;;;15.30;99.90;;;14.79;76.40;101242.63;5014088;28;20203;-75
2023/05/12 08:16:14;;;;;;;11.20;8.23;;;15.30;99.90;;;14.85;76.39;101244.59;5013168;28;20653;-75
2023/05/12 08:18:47;;;;;;;9.47;8.57;;;15.40;99.90;;;14.92;75.14;101242.03;5013334;28;20192;-75
2023/05/12 08:21:19;;;;;;;9.03;7.93;;;15.50;99.90;;;15.02;73.12;101245.34;5016789;28;20758;-75
2023/05/12 08:23:52;;;;;;;11.27;8.63;;;15.50;99.90;;;15.10;73.53;101248.84;5017898;28;20199;-75
2023/05/12 08:26:24;;;;;;;10.50;8.00;;;15.70;99.90;;;15.13;75.42;101245.81;5017521;28;20196;-75
2023/05/12 08:28:56;;;;;;;9.37;8.50;;;15.70;99.90;;;15.22;75.83;101250.13;5017583;28;20191;-75
2023/05/12 08:31:29;;;;;;;9.20;8.03;;;15.80;99.90;;;15.35;73.00;101246.84;5017126;28;20231;-75
2023/05/12 08:34:02;;;;;;;8.53;7.73;;;15.90;99.90;;;15.45;72.93;101252.84;5017113;28;20215;-75
2023/05/12 08:36:42;;;;;;;9.27;8.20;;;16.00;99.90;;;15.54;72.46;101249.09;5017423;28;20191;-77
2023/05/12 08:39:15;;;;;;;11.57;8.47;;;16.10;99.90;;;15.57;72.74;101243.34;5017425;28;20192;-77
2023/05/12 08:41:58;;;;;;;8.73;7.87;;;16.10;99.90;;;15.70;71.72;101235.47;5017212;28;20645;-75
2023/05/12 08:44:32;;;;;;;10.80;8.70;;;16.20;99.90;;;15.78;71.71;101241.81;5017338;28;20191;-75
2023/05/12 08:47:06;;;;;;;10.53;8.03;;;16.30;99.90;;;15.86;73.34;101244.44;5016867;28;20547;-75
2023/05/12 08:49:42;;;;;;;9.53;8.53;;;16.40;99.90;;;15.91;73.94;101237.50;5016812;28;20224;-75
2023/05/12 08:52:20;;;;;;;11.07;8.33;;;16.40;99.90;;;16.04;73.96;101242.25;5017173;28;20270;-75
2023/05/12 08:54:53;;;;;;;9.10;8.20;;;16.50;99.90;;;16.09;73.13;101248.81;5017345;28;20196;-77
2023/05/12 08:57:28;;;;;;;8.53;7.73;;;16.70;99.90;;;16.12;73.42;101247.59;5016811;28;20656;-77
2023/05/12 09:00:04;;;;;;;8.53;7.73;;;16.70;99.90;;;16.16;75.17;101243.50;5015743;28;20315;-75
2023/05/12 09:02:37;;;;;;;9.20;8.20;;;16.70;99.90;;;16.23;73.77;101247.16;5016976;28;20195;-75
2023/05/12 09:05:26;;;;;;;9.00;8.10;;;16.80;99.90;;;16.27;74.32;101243.03;5016945;28;20192;-75
2023/05/12 09:08:02;;;;;;;9.67;7.70;;;16.80;99.90;;;16.35;75.06;101245.66;5016790;28;20221;-76
2023/05/12 09:10:36;;;;;;;9.53;7.50;;;16.90;99.90;;;16.48;75.20;101245.84;5016862;28;20231;-76
2023/05/12 09:13:20;;;;;;;11.63;6.97;;;17.00;99.90;;;16.74;70.81;101237.28;5016465;28;20192;-76
2023/05/12 09:15:55;;;;;;;9.27;7.33;;;17.30;99.90;;;16.87;73.00;101242.03;5016731;28;20188;-76
2023/05/12 09:18:44;;;;;;;9.47;8.23;;;17.40;99.90;;;17.02;71.75;101238.25;5016612;28;20195;-76
2023/05/12 09:21:18;;;;;;;8.83;7.93;;;17.50;99.90;;;16.98;70.90;101242.38;5016253;28;20227;-76
2023/05/12 09:24:04;;;;;;;9.70;7.67;;;17.50;99.60;;;17.15;71.15;101243.00;5018524;28;20214;-76
2023/05/12 09:26:48;;;;;;;9.17;6.63;;;17.70;99.90;;;17.40;68.71;101241.59;5016212;28;20199;-75
2023/05/12 09:29:23;;;;;;;8.03;6.47;;;17.90;98.40;;;17.70;63.09;101237.78;5016109;28;20187;-75
2023/05/12 09:32:06;;;;;;;6.93;6.23;;;18.20;96.50;;;17.74;66.06;101252.56;5015932;28;20299;-75
2023/05/12 09:34:40;;;;;;;6.53;5.63;;;18.30;97.00;;;17.90;62.82;101243.34;5016415;28;20269;-75
2023/05/12 09:37:14;;;;;;;6.47;5.40;;;18.50;95.80;;;18.09;62.76;101248.06;5016296;28;20557;-75
2023/05/12 09:39:46;;;;;;;7.77;6.27;;;18.60;95.60;;;18.09;64.99;101244.53;5016262;28;20228;-75
2023/05/12 09:42:17;;;;;;;7.87;6.07;;;18.60;96.00;;;18.26;61.77;101248.63;5016169;28;20199;-76
2023/05/12 09:44:50;;;;;;;7.77;6.10;;;18.70;95.30;;;18.23;62.08;101254.44;5016293;28;20200;-77
2023/05/12 09:47:22;;;;;;;7.13;5.40;;;18.70;95.00;;;18.27;62.51;101254.88;5016145;28;20207;-76
2023/05/12 09:49:56;;;;;;;8.47;5.90;;;18.80;95.10;;;18.38;61.92;101257.88;5016331;28;20227;-76
2023/05/12 09:52:31;;;;;;;7.13;5.87;;;18.80;94.90;;;18.47;61.94;101250.41;5016063;28;20188;-76
2023/05/12 09:55:12;;;;;;;7.13;6.43;;;19.00;94.70;;;18.55;62.63;101262.00;5016026;28;20271;-76
2023/05/12 09:57:46;;;;;;;9.40;6.03;;;19.00;95.20;;;18.72;62.33;101255.19;5016018;28;20195;-76
2023/05/12 10:00:20;;;;;;;6.87;6.17;;;19.30;95.30;;;18.72;60.88;101260.63;5016165;28;20231;-76
2023/05/12 10:03:16;;;;;;;6.13;5.53;;;19.30;94.30;;;18.77;61.12;101259.19;5015959;28;20243;-76
2023/05/12 10:05:53;;;;;;;7.73;5.53;;;19.30;94.60;;;18.89;58.62;101254.84;5015595;28;20237;-76
2023/05/12 10:08:34;;;;;;;7.57;5.30;;;19.40;93.00;;;18.93;57.93;101256.13;5015695;28;20624;-76
2023/05/12 10:11:07;;;;;;;5.37;4.87;;;19.50;93.60;;;19.17;53.94;101255.59;5015639;28;20278;-76
2023/05/12 10:13:40;;;;;;;6.57;5.20;;;19.60;91.00;;;19.30;54.48;101258.34;5015595;28;20633;-76
2023/05/12 10:16:12;;;;;;;5.03;4.53;;;19.80;90.90;;;19.38;52.78;101260.03;5015618;28;20203;-76
2023/05/12 10:18:46;;;;;;;6.23;5.10;;;19.80;89.60;;;19.52;51.87;101259.06;5015345;28;20603;-76
2023/05/12 10:21:19;;;;;;;7.93;4.87;;;20.00;88.60;;;19.44;56.91;101260.09;5015405;28;20235;-76
2023/05/12 10:23:54;;;;;;;8.13;5.13;;;19.90;91.60;;;19.52;55.36;101264.50;5015189;28;20192;-76
2023/05/12 10:26:26;;;;;;;6.63;5.17;;;20.00;90.80;;;19.59;51.81;101263.44;5015483;28;20202;-76
2023/05/12 10:28:59;;;;;;;5.10;4.70;;;20.10;90.00;;;19.68;52.97;101262.22;5015358;28;20239;-76